sensor_id;sensor_type;location;lat;lon;timestamp;P1;durP1;ratioP1;P2;durP2;ratioP2
15673;SDS011;7937;48.090;16.212;2023-03-23T00:00:42;2.93;;;1.77;;
15673;SDS011;7937;48.090;16.212;2023-03-23T00:03:42;2.67;;;1.67;;
15673;SDS011;7937;48.090;16.212;2023-03-23T00:06:44;1.93;;;1.67;;
15673;SDS011;7937;48.090;16.212;2023-03-23T00:09:45;1.70;;;1.53;;
15673;SDS011;7937;48.090;16.212;2023-03-23T00:12:47;2.20;;;1.60;;
15673;SDS011;7937;48.090;16.212;2023-03-23T00:15:50;2.67;;;1.60;;
15673;SDS011;7937;48.090;16.212;2023-03-23T00:18:54;1.90;;;1.40;;
15673;SDS011;7937;48.090;16.212;2023-03-23T00:21:57;1.60;;;1.40;;
15673;SDS011;7937;48.090;16.212;2023-03-23T00:25:01;1.40;;;1.30;;
15673;SDS011;7937;48.090;16.212;2023-03-23T00:28:02;2.03;;;1.50;;
15673;SDS011;7937;48.090;16.212;2023-03-23T00:31:04;1.50;;;1.30;;
15673;SDS011;7937;48.090;16.212;2023-03-23T00:34:08;1.37;;;1.27;;
15673;SDS011;7937;48.090;16.212;2023-03-23T00:37:12;3.57;;;1.50;;
15673;SDS011;7937;48.090;16.212;2023-03-23T00:40:13;1.67;;;1.30;;
15673;SDS011;7937;48.090;16.212;2023-03-23T00:43:14;1.53;;;1.27;;
15673;SDS011;7937;48.090;16.212;2023-03-23T00:46:16;1.17;;;1.07;;
15673;SDS011;7937;48.090;16.212;2023-03-23T00:49:20;2.10;;;1.30;;
15673;SDS011;7937;48.090;16.212;2023-03-23T00:52:25;2.03;;;1.20;;
15673;SDS011;7937;48.090;16.212;2023-03-23T00:55:26;1.43;;;1.33;;
15673;SDS011;7937;48.090;16.212;2023-03-23T00:58:27;2.20;;;1.40;;
15673;SDS011;7937;48.090;16.212;2023-03-23T01:01:29;2.03;;;1.50;;
15673;SDS011;7937;48.090;16.212;2023-03-23T01:04:30;2.47;;;1.20;;
15673;SDS011;7937;48.090;16.212;2023-03-23T01:07:31;1.37;;;1.27;;
15673;SDS011;7937;48.090;16.212;2023-03-23T01:10:35;1.80;;;1.20;;
15673;SDS011;7937;48.090;16.212;2023-03-23T01:13:39;1.40;;;1.00;;
15673;SDS011;7937;48.090;16.212;2023-03-23T01:16:41;2.03;;;1.60;;
15673;SDS011;7937;48.090;16.212;2023-03-23T01:19:41;1.37;;;1.20;;
15673;SDS011;7937;48.090;16.212;2023-03-23T01:22:42;2.97;;;1.37;;
15673;SDS011;7937;48.090;16.212;2023-03-23T01:25:43;1.83;;;1.30;;
15673;SDS011;7937;48.090;16.212;2023-03-23T01:28:45;1.33;;;1.10;;
15673;SDS011;7937;48.090;16.212;2023-03-23T01:31:46;1.53;;;1.20;;
15673;SDS011;7937;48.090;16.212;2023-03-23T01:34:47;1.63;;;1.10;;
15673;SDS011;7937;48.090;16.212;2023-03-23T01:37:48;1.57;;;1.27;;
15673;SDS011;7937;48.090;16.212;2023-03-23T01:40:49;1.57;;;1.23;;
15673;SDS011;7937;48.090;16.212;2023-03-23T01:47:04;1.40;;;1.17;;
15673;SDS011;7937;48.090;16.212;2023-03-23T01:50:08;1.53;;;1.30;;
15673;SDS011;7937;48.090;16.212;2023-03-23T01:53:09;1.50;;;1.40;;
15673;SDS011;7937;48.090;16.212;2023-03-23T01:56:12;1.97;;;1.30;;
15673;SDS011;7937;48.090;16.212;2023-03-23T01:59:16;4.63;;;1.43;;
15673;SDS011;7937;48.090;16.212;2023-03-23T02:02:22;1.70;;;1.60;;
15673;SDS011;7937;48.090;16.212;2023-03-23T02:05:29;2.40;;;2.10;;
15673;SDS011;7937;48.090;16.212;2023-03-23T02:08:38;1.60;;;1.10;;
15673;SDS011;7937;48.090;16.212;2023-03-23T02:11:41;2.47;;;1.43;;
15673;SDS011;7937;48.090;16.212;2023-03-23T02:14:42;2.03;;;1.90;;
15673;SDS011;7937;48.090;16.212;2023-03-23T02:17:49;1.83;;;1.30;;
15673;SDS011;7937;48.090;16.212;2023-03-23T02:21:17;1.90;;;1.40;;
15673;SDS011;7937;48.090;16.212;2023-03-23T02:28:05;1.67;;;1.30;;
15673;SDS011;7937;48.090;16.212;2023-03-23T02:31:16;1.93;;;1.40;;
15673;SDS011;7937;48.090;16.212;2023-03-23T02:34:40;3.37;;;1.40;;
15673;SDS011;7937;48.090;16.212;2023-03-23T02:37:48;1.50;;;1.40;;
15673;SDS011;7937;48.090;16.212;2023-03-23T02:40:55;1.43;;;1.33;;
15673;SDS011;7937;48.090;16.212;2023-03-23T02:44:00;2.37;;;1.60;;
15673;SDS011;7937;48.090;16.212;2023-03-23T02:47:04;3.73;;;1.60;;
15673;SDS011;7937;48.090;16.212;2023-03-23T02:50:09;2.00;;;1.57;;
15673;SDS011;7937;48.090;16.212;2023-03-23T02:53:13;2.43;;;1.30;;
15673;SDS011;7937;48.090;16.212;2023-03-23T02:56:19;2.03;;;1.50;;
15673;SDS011;7937;48.090;16.212;2023-03-23T02:59:23;3.13;;;1.47;;
15673;SDS011;7937;48.090;16.212;2023-03-23T03:02:25;2.53;;;1.20;;
15673;SDS011;7937;48.090;16.212;2023-03-23T03:11:56;1.40;;;1.30;;
15673;SDS011;7937;48.090;16.212;2023-03-23T03:18:22;1.80;;;1.50;;
15673;SDS011;7937;48.090;16.212;2023-03-23T03:21:29;1.67;;;1.30;;
15673;SDS011;7937;48.090;16.212;2023-03-23T03:24:34;1.60;;;1.37;;
15673;SDS011;7937;48.090;16.212;2023-03-23T03:27:42;1.90;;;1.33;;
15673;SDS011;7937;48.090;16.212;2023-03-23T03:30:52;4.30;;;1.60;;
15673;SDS011;7937;48.090;16.212;2023-03-23T03:33:56;1.50;;;1.40;;
15673;SDS011;7937;48.090;16.212;2023-03-23T03:36:58;3.03;;;1.47;;
15673;SDS011;7937;48.090;16.212;2023-03-23T03:40:00;1.77;;;1.30;;
15673;SDS011;7937;48.090;16.212;2023-03-23T03:43:01;2.47;;;1.50;;
15673;SDS011;7937;48.090;16.212;2023-03-23T03:46:02;1.83;;;1.57;;
15673;SDS011;7937;48.090;16.212;2023-03-23T03:49:05;1.83;;;1.30;;
15673;SDS011;7937;48.090;16.212;2023-03-23T03:52:10;1.63;;;1.20;;
15673;SDS011;7937;48.090;16.212;2023-03-23T03:55:15;1.30;;;1.20;;
15673;SDS011;7937;48.090;16.212;2023-03-23T03:58:21;1.30;;;1.20;;
15673;SDS011;7937;48.090;16.212;2023-03-23T04:01:45;1.43;;;1.33;;
15673;SDS011;7937;48.090;16.212;2023-03-23T04:04:47;3.00;;;1.40;;
15673;SDS011;7937;48.090;16.212;2023-03-23T04:07:48;2.60;;;1.17;;
15673;SDS011;7937;48.090;16.212;2023-03-23T04:10:53;1.27;;;1.10;;
15673;SDS011;7937;48.090;16.212;2023-03-23T04:13:55;1.63;;;1.10;;
15673;SDS011;7937;48.090;16.212;2023-03-23T04:16:58;1.60;;;1.20;;
15673;SDS011;7937;48.090;16.212;2023-03-23T04:19:59;2.40;;;1.23;;
15673;SDS011;7937;48.090;16.212;2023-03-23T04:23:06;1.60;;;1.13;;
15673;SDS011;7937;48.090;16.212;2023-03-23T04:26:08;1.90;;;1.23;;
15673;SDS011;7937;48.090;16.212;2023-03-23T04:29:19;1.30;;;1.20;;
15673;SDS011;7937;48.090;16.212;2023-03-23T04:32:55;2.93;;;1.60;;
15673;SDS011;7937;48.090;16.212;2023-03-23T04:36:00;2.83;;;1.37;;
15673;SDS011;7937;48.090;16.212;2023-03-23T04:39:11;3.87;;;1.60;;
15673;SDS011;7937;48.090;16.212;2023-03-23T04:42:13;1.57;;;1.20;;
15673;SDS011;7937;48.090;16.212;2023-03-23T04:45:55;1.80;;;1.27;;
15673;SDS011;7937;48.090;16.212;2023-03-23T04:49:00;1.33;;;1.23;;
15673;SDS011;7937;48.090;16.212;2023-03-23T04:52:09;4.93;;;1.40;;
15673;SDS011;7937;48.090;16.212;2023-03-23T04:55:17;1.57;;;1.40;;
15673;SDS011;7937;48.090;16.212;2023-03-23T04:58:26;2.53;;;1.33;;
15673;SDS011;7937;48.090;16.212;2023-03-23T05:01:55;4.23;;;1.63;;
15673;SDS011;7937;48.090;16.212;2023-03-23T05:04:58;2.53;;;1.37;;
15673;SDS011;7937;48.090;16.212;2023-03-23T05:08:02;1.50;;;1.40;;
15673;SDS011;7937;48.090;16.212;2023-03-23T05:11:08;1.60;;;1.33;;
15673;SDS011;7937;48.090;16.212;2023-03-23T05:14:12;2.27;;;1.20;;
15673;SDS011;7937;48.090;16.212;2023-03-23T05:17:16;1.40;;;1.30;;
15673;SDS011;7937;48.090;16.212;2023-03-23T05:20:18;1.67;;;1.40;;
15673;SDS011;7937;48.090;16.212;2023-03-23T05:23:43;1.93;;;1.50;;
15673;SDS011;7937;48.090;16.212;2023-03-23T05:26:52;1.90;;;1.43;;
15673;SDS011;7937;48.090;16.212;2023-03-23T05:29:59;1.93;;;1.27;;
15673;SDS011;7937;48.090;16.212;2023-03-23T05:33:02;1.83;;;1.30;;
15673;SDS011;7937;48.090;16.212;2023-03-23T05:36:16;1.73;;;1.60;;
15673;SDS011;7937;48.090;16.212;2023-03-23T05:39:35;1.63;;;1.30;;
15673;SDS011;7937;48.090;16.212;2023-03-23T05:42:53;2.00;;;1.33;;
15673;SDS011;7937;48.090;16.212;2023-03-23T05:46:04;1.70;;;1.37;;
15673;SDS011;7937;48.090;16.212;2023-03-23T05:49:05;1.60;;;1.33;;
15673;SDS011;7937;48.090;16.212;2023-03-23T05:52:12;1.40;;;1.13;;
15673;SDS011;7937;48.090;16.212;2023-03-23T05:55:14;1.53;;;1.40;;
15673;SDS011;7937;48.090;16.212;2023-03-23T05:58:20;1.50;;;1.20;;
15673;SDS011;7937;48.090;16.212;2023-03-23T06:01:21;1.47;;;1.27;;
15673;SDS011;7937;48.090;16.212;2023-03-23T06:04:24;1.47;;;1.20;;
15673;SDS011;7937;48.090;16.212;2023-03-23T06:07:42;1.77;;;1.30;;
15673;SDS011;7937;48.090;16.212;2023-03-23T06:10:44;1.47;;;1.20;;
15673;SDS011;7937;48.090;16.212;2023-03-23T06:13:47;1.80;;;1.53;;
15673;SDS011;7937;48.090;16.212;2023-03-23T06:16:48;1.63;;;1.30;;
15673;SDS011;7937;48.090;16.212;2023-03-23T06:19:49;1.90;;;1.57;;
15673;SDS011;7937;48.090;16.212;2023-03-23T06:22:52;1.50;;;1.40;;
15673;SDS011;7937;48.090;16.212;2023-03-23T06:26:11;1.77;;;1.20;;
15673;SDS011;7937;48.090;16.212;2023-03-23T06:29:18;1.50;;;1.20;;
15673;SDS011;7937;48.090;16.212;2023-03-23T06:32:25;1.90;;;1.20;;
15673;SDS011;7937;48.090;16.212;2023-03-23T06:35:30;1.30;;;1.10;;
15673;SDS011;7937;48.090;16.212;2023-03-23T06:38:46;2.53;;;1.00;;
15673;SDS011;7937;48.090;16.212;2023-03-23T06:41:51;1.17;;;0.90;;
15673;SDS011;7937;48.090;16.212;2023-03-23T06:44:52;1.53;;;1.00;;
15673;SDS011;7937;48.090;16.212;2023-03-23T06:47:57;1.27;;;1.17;;
15673;SDS011;7937;48.090;16.212;2023-03-23T06:50:58;1.40;;;1.10;;
15673;SDS011;7937;48.090;16.212;2023-03-23T06:54:01;0.70;;;0.70;;
15673;SDS011;7937;48.090;16.212;2023-03-23T06:57:07;1.80;;;1.17;;
15673;SDS011;7937;48.090;16.212;2023-03-23T07:00:11;1.20;;;1.10;;
15673;SDS011;7937;48.090;16.212;2023-03-23T07:03:15;0.97;;;0.90;;
15673;SDS011;7937;48.090;16.212;2023-03-23T07:06:16;2.13;;;1.17;;
15673;SDS011;7937;48.090;16.212;2023-03-23T07:09:24;0.83;;;0.83;;
15673;SDS011;7937;48.090;16.212;2023-03-23T07:12:26;1.10;;;0.80;;
15673;SDS011;7937;48.090;16.212;2023-03-23T07:15:28;1.20;;;1.00;;
15673;SDS011;7937;48.090;16.212;2023-03-23T07:18:31;1.00;;;0.90;;
15673;SDS011;7937;48.090;16.212;2023-03-23T07:21:34;1.43;;;1.07;;
15673;SDS011;7937;48.090;16.212;2023-03-23T07:24:35;1.10;;;1.00;;
15673;SDS011;7937;48.090;16.212;2023-03-23T07:27:46;1.53;;;1.00;;
15673;SDS011;7937;48.090;16.212;2023-03-23T07:30:48;1.10;;;1.00;;
15673;SDS011;7937;48.090;16.212;2023-03-23T07:33:49;2.23;;;0.97;;
15673;SDS011;7937;48.090;16.212;2023-03-23T07:36:51;0.93;;;0.90;;
15673;SDS011;7937;48.090;16.212;2023-03-23T07:39:52;1.53;;;1.17;;
15673;SDS011;7937;48.090;16.212;2023-03-23T07:42:56;2.93;;;1.30;;
15673;SDS011;7937;48.090;16.212;2023-03-23T07:46:21;1.47;;;1.00;;
15673;SDS011;7937;48.090;16.212;2023-03-23T07:49:40;1.47;;;1.23;;
15673;SDS011;7937;48.090;16.212;2023-03-23T07:52:56;7.10;;;1.40;;
15673;SDS011;7937;48.090;16.212;2023-03-23T07:56:00;1.20;;;1.00;;
15673;SDS011;7937;48.090;16.212;2023-03-23T07:59:22;2.97;;;1.60;;
15673;SDS011;7937;48.090;16.212;2023-03-23T08:02:23;1.87;;;1.40;;
15673;SDS011;7937;48.090;16.212;2023-03-23T08:05:30;1.97;;;1.20;;
15673;SDS011;7937;48.090;16.212;2023-03-23T08:08:48;1.63;;;1.00;;
15673;SDS011;7937;48.090;16.212;2023-03-23T08:12:08;2.97;;;1.40;;
15673;SDS011;7937;48.090;16.212;2023-03-23T08:15:36;1.30;;;1.10;;
15673;SDS011;7937;48.090;16.212;2023-03-23T08:18:56;1.13;;;1.03;;
15673;SDS011;7937;48.090;16.212;2023-03-23T08:22:09;1.63;;;1.20;;
15673;SDS011;7937;48.090;16.212;2023-03-23T08:25:33;3.63;;;1.40;;
15673;SDS011;7937;48.090;16.212;2023-03-23T08:28:57;2.70;;;1.33;;
15673;SDS011;7937;48.090;16.212;2023-03-23T08:32:18;1.67;;;1.27;;
15673;SDS011;7937;48.090;16.212;2023-03-23T08:35:37;2.97;;;1.63;;
15673;SDS011;7937;48.090;16.212;2023-03-23T08:39:04;4.10;;;1.57;;
15673;SDS011;7937;48.090;16.212;2023-03-23T08:42:42;2.43;;;1.23;;
15673;SDS011;7937;48.090;16.212;2023-03-23T08:46:04;2.40;;;1.40;;
15673;SDS011;7937;48.090;16.212;2023-03-23T08:49:30;4.00;;;1.43;;
15673;SDS011;7937;48.090;16.212;2023-03-23T08:52:59;4.27;;;2.00;;
15673;SDS011;7937;48.090;16.212;2023-03-23T08:56:14;5.77;;;2.43;;
15673;SDS011;7937;48.090;16.212;2023-03-23T08:59:40;4.23;;;1.90;;
15673;SDS011;7937;48.090;16.212;2023-03-23T09:03:04;6.67;;;2.33;;
15673;SDS011;7937;48.090;16.212;2023-03-23T09:06:27;10.60;;;3.87;;
15673;SDS011;7937;48.090;16.212;2023-03-23T09:09:28;8.63;;;3.70;;
15673;SDS011;7937;48.090;16.212;2023-03-23T09:12:29;8.70;;;3.90;;
15673;SDS011;7937;48.090;16.212;2023-03-23T09:15:30;6.80;;;3.93;;
15673;SDS011;7937;48.090;16.212;2023-03-23T09:18:31;9.13;;;3.80;;
15673;SDS011;7937;48.090;16.212;2023-03-23T09:21:35;7.93;;;3.50;;
15673;SDS011;7937;48.090;16.212;2023-03-23T09:24:36;7.23;;;3.67;;
15673;SDS011;7937;48.090;16.212;2023-03-23T09:27:37;5.17;;;3.37;;
15673;SDS011;7937;48.090;16.212;2023-03-23T09:30:40;4.67;;;2.87;;
15673;SDS011;7937;48.090;16.212;2023-03-23T09:33:41;7.13;;;3.30;;
15673;SDS011;7937;48.090;16.212;2023-03-23T09:36:42;10.50;;;3.93;;
15673;SDS011;7937;48.090;16.212;2023-03-23T09:39:44;4.97;;;2.70;;
15673;SDS011;7937;48.090;16.212;2023-03-23T09:49:47;6.50;;;3.30;;
15673;SDS011;7937;48.090;16.212;2023-03-23T09:52:55;6.77;;;3.47;;
15673;SDS011;7937;48.090;16.212;2023-03-23T09:55:58;3.50;;;2.77;;
15673;SDS011;7937;48.090;16.212;2023-03-23T09:59:11;6.40;;;3.30;;
15673;SDS011;7937;48.090;16.212;2023-03-23T10:02:27;3.63;;;2.70;;
15673;SDS011;7937;48.090;16.212;2023-03-23T10:08:51;5.83;;;3.00;;
15673;SDS011;7937;48.090;16.212;2023-03-23T10:11:56;6.27;;;2.97;;
15673;SDS011;7937;48.090;16.212;2023-03-23T10:15:26;6.93;;;3.10;;
15673;SDS011;7937;48.090;16.212;2023-03-23T10:18:36;2.23;;;2.03;;
15673;SDS011;7937;48.090;16.212;2023-03-23T10:21:44;5.37;;;2.93;;
15673;SDS011;7937;48.090;16.212;2023-03-23T10:24:57;5.77;;;3.20;;
15673;SDS011;7937;48.090;16.212;2023-03-23T10:28:12;2.77;;;2.43;;
15673;SDS011;7937;48.090;16.212;2023-03-23T10:31:19;2.93;;;2.60;;
15673;SDS011;7937;48.090;16.212;2023-03-23T10:37:38;6.70;;;4.10;;
15673;SDS011;7937;48.090;16.212;2023-03-23T10:40:45;6.40;;;4.10;;
15673;SDS011;7937;48.090;16.212;2023-03-23T10:43:50;6.47;;;4.40;;
15673;SDS011;7937;48.090;16.212;2023-03-23T10:46:57;7.53;;;4.80;;
15673;SDS011;7937;48.090;16.212;2023-03-23T10:49:59;6.10;;;4.00;;
15673;SDS011;7937;48.090;16.212;2023-03-23T10:53:07;5.60;;;4.93;;
15673;SDS011;7937;48.090;16.212;2023-03-23T10:56:21;5.70;;;4.70;;
15673;SDS011;7937;48.090;16.212;2023-03-23T10:59:29;9.27;;;4.37;;
15673;SDS011;7937;48.090;16.212;2023-03-23T11:02:40;5.93;;;4.10;;
15673;SDS011;7937;48.090;16.212;2023-03-23T11:05:58;5.40;;;4.43;;
15673;SDS011;7937;48.090;16.212;2023-03-23T11:09:10;3.80;;;3.47;;
15673;SDS011;7937;48.090;16.212;2023-03-23T11:12:17;4.97;;;4.20;;
15673;SDS011;7937;48.090;16.212;2023-03-23T11:21:40;4.43;;;3.93;;
15673;SDS011;7937;48.090;16.212;2023-03-23T11:24:50;4.53;;;3.97;;
15673;SDS011;7937;48.090;16.212;2023-03-23T11:27:54;6.77;;;4.17;;
15673;SDS011;7937;48.090;16.212;2023-03-23T11:30:55;4.63;;;3.80;;
15673;SDS011;7937;48.090;16.212;2023-03-23T11:34:00;6.13;;;3.60;;
15673;SDS011;7937;48.090;16.212;2023-03-23T11:37:08;4.40;;;3.43;;
15673;SDS011;7937;48.090;16.212;2023-03-23T11:40:18;7.40;;;3.23;;
15673;SDS011;7937;48.090;16.212;2023-03-23T11:43:24;6.37;;;3.40;;
15673;SDS011;7937;48.090;16.212;2023-03-23T11:46:32;2.83;;;2.60;;
15673;SDS011;7937;48.090;16.212;2023-03-23T11:49:50;6.60;;;2.77;;
15673;SDS011;7937;48.090;16.212;2023-03-23T11:53:15;7.70;;;3.40;;
15673;SDS011;7937;48.090;16.212;2023-03-23T11:59:34;4.77;;;2.90;;
15673;SDS011;7937;48.090;16.212;2023-03-23T12:02:39;5.57;;;2.83;;
15673;SDS011;7937;48.090;16.212;2023-03-23T12:06:30;5.93;;;3.70;;
15673;SDS011;7937;48.090;16.212;2023-03-23T12:23:33;4.50;;;3.27;;
15673;SDS011;7937;48.090;16.212;2023-03-23T12:26:48;6.23;;;3.50;;
15673;SDS011;7937;48.090;16.212;2023-03-23T12:49:35;6.07;;;3.67;;
15673;SDS011;7937;48.090;16.212;2023-03-23T12:56:13;7.97;;;3.47;;
15673;SDS011;7937;48.090;16.212;2023-03-23T12:59:37;3.97;;;3.50;;
15673;SDS011;7937;48.090;16.212;2023-03-23T13:03:02;6.40;;;3.50;;
15673;SDS011;7937;48.090;16.212;2023-03-23T13:13:10;3.80;;;3.00;;
15673;SDS011;7937;48.090;16.212;2023-03-23T13:16:26;4.07;;;3.07;;
15673;SDS011;7937;48.090;16.212;2023-03-23T13:23:21;9.17;;;4.30;;
15673;SDS011;7937;48.090;16.212;2023-03-23T13:26:25;5.30;;;3.40;;
15673;SDS011;7937;48.090;16.212;2023-03-23T13:29:27;6.03;;;3.20;;
15673;SDS011;7937;48.090;16.212;2023-03-23T13:32:32;4.23;;;3.27;;
15673;SDS011;7937;48.090;16.212;2023-03-23T13:35:36;3.63;;;3.10;;
15673;SDS011;7937;48.090;16.212;2023-03-23T13:38:44;5.90;;;3.23;;
15673;SDS011;7937;48.090;16.212;2023-03-23T13:41:54;3.77;;;2.90;;
15673;SDS011;7937;48.090;16.212;2023-03-23T13:48:21;4.00;;;2.70;;
15673;SDS011;7937;48.090;16.212;2023-03-23T13:54:45;5.03;;;3.10;;
15673;SDS011;7937;48.090;16.212;2023-03-23T13:57:57;3.10;;;2.40;;
15673;SDS011;7937;48.090;16.212;2023-03-23T14:01:15;3.10;;;2.80;;
15673;SDS011;7937;48.090;16.212;2023-03-23T14:04:18;3.43;;;2.83;;
15673;SDS011;7937;48.090;16.212;2023-03-23T14:07:20;3.10;;;2.80;;
15673;SDS011;7937;48.090;16.212;2023-03-23T14:10:20;3.83;;;3.23;;
15673;SDS011;7937;48.090;16.212;2023-03-23T14:16:48;4.77;;;2.70;;
15673;SDS011;7937;48.090;16.212;2023-03-23T14:19:52;3.07;;;2.77;;
15673;SDS011;7937;48.090;16.212;2023-03-23T14:23:15;4.83;;;2.50;;
15673;SDS011;7937;48.090;16.212;2023-03-23T14:26:19;3.10;;;2.40;;
15673;SDS011;7937;48.090;16.212;2023-03-23T14:29:21;2.50;;;2.13;;
15673;SDS011;7937;48.090;16.212;2023-03-23T14:32:23;3.17;;;2.27;;
15673;SDS011;7937;48.090;16.212;2023-03-23T14:35:30;3.40;;;2.40;;
15673;SDS011;7937;48.090;16.212;2023-03-23T14:38:33;6.33;;;2.43;;
15673;SDS011;7937;48.090;16.212;2023-03-23T14:41:34;4.63;;;2.60;;
15673;SDS011;7937;48.090;16.212;2023-03-23T14:44:40;2.30;;;2.10;;
15673;SDS011;7937;48.090;16.212;2023-03-23T14:47:47;4.73;;;2.70;;
15673;SDS011;7937;48.090;16.212;2023-03-23T14:50:57;2.80;;;2.37;;
15673;SDS011;7937;48.090;16.212;2023-03-23T14:54:00;3.93;;;2.00;;
15673;SDS011;7937;48.090;16.212;2023-03-23T14:57:17;3.70;;;2.10;;
15673;SDS011;7937;48.090;16.212;2023-03-23T15:00:21;5.67;;;2.20;;
15673;SDS011;7937;48.090;16.212;2023-03-23T15:03:26;3.90;;;2.37;;
15673;SDS011;7937;48.090;16.212;2023-03-23T15:06:32;3.13;;;1.90;;
15673;SDS011;7937;48.090;16.212;2023-03-23T15:09:37;3.17;;;1.90;;
15673;SDS011;7937;48.090;16.212;2023-03-23T15:12:42;4.53;;;2.60;;
15673;SDS011;7937;48.090;16.212;2023-03-23T15:15:45;2.07;;;1.73;;
15673;SDS011;7937;48.090;16.212;2023-03-23T15:18:48;2.03;;;1.80;;
15673;SDS011;7937;48.090;16.212;2023-03-23T15:21:54;2.63;;;2.03;;
15673;SDS011;7937;48.090;16.212;2023-03-23T15:25:10;3.13;;;1.87;;
15673;SDS011;7937;48.090;16.212;2023-03-23T15:28:15;6.67;;;2.33;;
15673;SDS011;7937;48.090;16.212;2023-03-23T15:31:17;3.10;;;2.00;;
15673;SDS011;7937;48.090;16.212;2023-03-23T15:34:29;2.37;;;1.73;;
15673;SDS011;7937;48.090;16.212;2023-03-23T15:37:33;3.20;;;1.73;;
15673;SDS011;7937;48.090;16.212;2023-03-23T15:40:37;2.43;;;2.00;;
15673;SDS011;7937;48.090;16.212;2023-03-23T15:43:52;2.80;;;2.00;;
15673;SDS011;7937;48.090;16.212;2023-03-23T15:47:12;3.97;;;1.97;;
15673;SDS011;7937;48.090;16.212;2023-03-23T15:53:35;2.20;;;2.00;;
15673;SDS011;7937;48.090;16.212;2023-03-23T15:56:38;2.33;;;1.40;;
15673;SDS011;7937;48.090;16.212;2023-03-23T15:59:39;2.20;;;1.80;;
15673;SDS011;7937;48.090;16.212;2023-03-23T16:02:41;2.70;;;1.63;;
15673;SDS011;7937;48.090;16.212;2023-03-23T16:05:44;1.90;;;1.80;;
15673;SDS011;7937;48.090;16.212;2023-03-23T16:08:46;5.13;;;1.83;;
15673;SDS011;7937;48.090;16.212;2023-03-23T16:11:55;1.90;;;1.70;;
15673;SDS011;7937;48.090;16.212;2023-03-23T16:14:57;2.83;;;1.73;;
15673;SDS011;7937;48.090;16.212;2023-03-23T16:17:59;4.30;;;2.00;;
15673;SDS011;7937;48.090;16.212;2023-03-23T16:21:01;2.43;;;1.80;;
15673;SDS011;7937;48.090;16.212;2023-03-23T16:24:04;3.37;;;1.53;;
15673;SDS011;7937;48.090;16.212;2023-03-23T16:27:08;2.17;;;1.60;;
15673;SDS011;7937;48.090;16.212;2023-03-23T16:33:24;1.57;;;1.47;;
15673;SDS011;7937;48.090;16.212;2023-03-23T16:36:26;2.53;;;2.10;;
15673;SDS011;7937;48.090;16.212;2023-03-23T16:39:28;2.47;;;1.73;;
15673;SDS011;7937;48.090;16.212;2023-03-23T16:42:31;3.57;;;2.10;;
15673;SDS011;7937;48.090;16.212;2023-03-23T16:45:33;2.00;;;1.80;;
15673;SDS011;7937;48.090;16.212;2023-03-23T16:48:36;5.10;;;1.90;;
15673;SDS011;7937;48.090;16.212;2023-03-23T16:51:38;5.63;;;2.10;;
15673;SDS011;7937;48.090;16.212;2023-03-23T16:54:43;12.83;;;2.67;;
15673;SDS011;7937;48.090;16.212;2023-03-23T16:57:45;9.50;;;2.53;;
15673;SDS011;7937;48.090;16.212;2023-03-23T17:00:48;11.27;;;2.57;;
15673;SDS011;7937;48.090;16.212;2023-03-23T17:03:52;2.70;;;2.17;;
15673;SDS011;7937;48.090;16.212;2023-03-23T17:06:55;3.47;;;2.57;;
15673;SDS011;7937;48.090;16.212;2023-03-23T17:09:59;5.00;;;2.40;;
15673;SDS011;7937;48.090;16.212;2023-03-23T17:13:01;3.60;;;2.23;;
15673;SDS011;7937;48.090;16.212;2023-03-23T17:16:03;2.77;;;2.17;;
15673;SDS011;7937;48.090;16.212;2023-03-23T17:19:07;3.90;;;2.33;;
15673;SDS011;7937;48.090;16.212;2023-03-23T17:22:09;3.60;;;2.20;;
15673;SDS011;7937;48.090;16.212;2023-03-23T17:25:12;3.30;;;2.10;;
15673;SDS011;7937;48.090;16.212;2023-03-23T17:28:14;2.80;;;2.30;;
15673;SDS011;7937;48.090;16.212;2023-03-23T17:31:20;3.53;;;2.40;;
15673;SDS011;7937;48.090;16.212;2023-03-23T17:34:24;6.73;;;2.73;;
15673;SDS011;7937;48.090;16.212;2023-03-23T17:37:26;2.40;;;2.20;;
15673;SDS011;7937;48.090;16.212;2023-03-23T17:40:28;3.10;;;2.60;;
15673;SDS011;7937;48.090;16.212;2023-03-23T17:43:30;5.33;;;2.40;;
15673;SDS011;7937;48.090;16.212;2023-03-23T17:46:34;4.10;;;2.37;;
15673;SDS011;7937;48.090;16.212;2023-03-23T17:49:37;3.43;;;2.73;;
15673;SDS011;7937;48.090;16.212;2023-03-23T17:52:39;4.53;;;2.80;;
15673;SDS011;7937;48.090;16.212;2023-03-23T17:55:44;3.37;;;2.53;;
15673;SDS011;7937;48.090;16.212;2023-03-23T17:58:47;4.23;;;2.47;;
15673;SDS011;7937;48.090;16.212;2023-03-23T18:01:50;3.63;;;2.70;;
15673;SDS011;7937;48.090;16.212;2023-03-23T18:04:57;4.67;;;2.57;;
15673;SDS011;7937;48.090;16.212;2023-03-23T18:08:00;3.67;;;2.50;;
15673;SDS011;7937;48.090;16.212;2023-03-23T18:11:03;3.13;;;2.80;;
15673;SDS011;7937;48.090;16.212;2023-03-23T18:14:09;4.00;;;3.17;;
15673;SDS011;7937;48.090;16.212;2023-03-23T18:17:12;4.37;;;2.87;;
15673;SDS011;7937;48.090;16.212;2023-03-23T18:20:14;5.20;;;3.30;;
15673;SDS011;7937;48.090;16.212;2023-03-23T18:23:17;6.00;;;3.03;;
15673;SDS011;7937;48.090;16.212;2023-03-23T18:26:20;4.33;;;3.13;;
15673;SDS011;7937;48.090;16.212;2023-03-23T18:29:24;5.27;;;3.13;;
15673;SDS011;7937;48.090;16.212;2023-03-23T18:32:28;3.80;;;3.20;;
15673;SDS011;7937;48.090;16.212;2023-03-23T18:35:32;7.93;;;4.13;;
15673;SDS011;7937;48.090;16.212;2023-03-23T18:38:35;5.23;;;3.53;;
15673;SDS011;7937;48.090;16.212;2023-03-23T18:41:39;5.67;;;3.87;;
15673;SDS011;7937;48.090;16.212;2023-03-23T18:44:42;7.03;;;3.83;;
15673;SDS011;7937;48.090;16.212;2023-03-23T18:47:47;4.40;;;3.63;;
15673;SDS011;7937;48.090;16.212;2023-03-23T18:50:54;8.83;;;4.33;;
15673;SDS011;7937;48.090;16.212;2023-03-23T18:53:59;7.20;;;4.10;;
15673;SDS011;7937;48.090;16.212;2023-03-23T18:57:04;6.70;;;4.93;;
15673;SDS011;7937;48.090;16.212;2023-03-23T19:00:06;5.60;;;4.30;;
15673;SDS011;7937;48.090;16.212;2023-03-23T19:03:10;6.33;;;4.97;;
15673;SDS011;7937;48.090;16.212;2023-03-23T19:06:19;6.43;;;4.73;;
15673;SDS011;7937;48.090;16.212;2023-03-23T19:09:29;6.70;;;4.83;;
15673;SDS011;7937;48.090;16.212;2023-03-23T19:12:33;6.90;;;5.17;;
15673;SDS011;7937;48.090;16.212;2023-03-23T19:15:37;6.83;;;5.13;;
15673;SDS011;7937;48.090;16.212;2023-03-23T19:18:41;7.57;;;5.40;;
15673;SDS011;7937;48.090;16.212;2023-03-23T19:21:45;7.13;;;5.50;;
15673;SDS011;7937;48.090;16.212;2023-03-23T19:24:50;6.97;;;5.30;;
15673;SDS011;7937;48.090;16.212;2023-03-23T19:27:53;8.17;;;5.40;;
15673;SDS011;7937;48.090;16.212;2023-03-23T19:30:59;7.90;;;4.87;;
15673;SDS011;7937;48.090;16.212;2023-03-23T19:34:03;6.00;;;5.20;;
15673;SDS011;7937;48.090;16.212;2023-03-23T19:37:07;5.73;;;5.00;;
15673;SDS011;7937;48.090;16.212;2023-03-23T19:40:12;6.37;;;5.30;;
15673;SDS011;7937;48.090;16.212;2023-03-23T19:43:37;6.73;;;5.30;;
15673;SDS011;7937;48.090;16.212;2023-03-23T19:46:46;5.37;;;4.83;;
15673;SDS011;7937;48.090;16.212;2023-03-23T19:49:49;7.03;;;4.80;;
15673;SDS011;7937;48.090;16.212;2023-03-23T19:52:55;5.97;;;5.00;;
15673;SDS011;7937;48.090;16.212;2023-03-23T19:56:01;5.63;;;5.13;;
15673;SDS011;7937;48.090;16.212;2023-03-23T19:59:06;6.87;;;4.93;;
15673;SDS011;7937;48.090;16.212;2023-03-23T20:02:12;7.17;;;5.40;;
15673;SDS011;7937;48.090;16.212;2023-03-23T20:05:16;8.83;;;5.47;;
15673;SDS011;7937;48.090;16.212;2023-03-23T20:08:19;6.10;;;5.20;;
15673;SDS011;7937;48.090;16.212;2023-03-23T20:11:24;6.47;;;4.80;;
15673;SDS011;7937;48.090;16.212;2023-03-23T20:14:27;5.10;;;4.60;;
15673;SDS011;7937;48.090;16.212;2023-03-23T20:17:32;6.30;;;5.00;;
15673;SDS011;7937;48.090;16.212;2023-03-23T20:20:36;5.20;;;4.10;;
15673;SDS011;7937;48.090;16.212;2023-03-23T20:23:41;5.37;;;4.87;;
15673;SDS011;7937;48.090;16.212;2023-03-23T20:26:46;6.83;;;4.27;;
15673;SDS011;7937;48.090;16.212;2023-03-23T20:29:53;5.37;;;4.70;;